sensor_id;sensor_type;location;lat;lon;timestamp;P1;durP1;ratioP1;P2;durP2;ratioP2
81651;SDS011;71061;55.714;37.794;2023-09-19T00:00:23;26.30;;;17.08;;
81651;SDS011;71061;55.714;37.794;2023-09-19T00:02:55;25.52;;;16.55;;
81651;SDS011;71061;55.714;37.794;2023-09-19T00:05:25;27.02;;;18.23;;
81651;SDS011;71061;55.714;37.794;2023-09-19T00:07:54;27.88;;;18.05;;
81651;SDS011;71061;55.714;37.794;2023-09-19T00:10:21;26.95;;;17.23;;
81651;SDS011;71061;55.714;37.794;2023-09-19T00:12:51;28.65;;;15.43;;
81651;SDS011;71061;55.714;37.794;2023-09-19T00:15:21;24.58;;;16.98;;
81651;SDS011;71061;55.714;37.794;2023-09-19T00:17:48;26.27;;;17.73;;
81651;SDS011;71061;55.714;37.794;2023-09-19T00:20:14;26.20;;;18.90;;
81651;SDS011;71061;55.714;37.794;2023-09-19T00:22:42;23.10;;;16.40;;
81651;SDS011;71061;55.714;37.794;2023-09-19T00:25:09;26.02;;;18.10;;
81651;SDS011;71061;55.714;37.794;2023-09-19T00:27:35;25.05;;;15.77;;
81651;SDS011;71061;55.714;37.794;2023-09-19T00:30:07;24.92;;;16.60;;
81651;SDS011;71061;55.714;37.794;2023-09-19T00:32:40;23.88;;;17.80;;
81651;SDS011;71061;55.714;37.794;2023-09-19T00:35:06;24.13;;;17.17;;
81651;SDS011;71061;55.714;37.794;2023-09-19T00:37:34;24.38;;;15.35;;
81651;SDS011;71061;55.714;37.794;2023-09-19T00:40:06;22.48;;;16.05;;
81651;SDS011;71061;55.714;37.794;2023-09-19T00:42:37;25.15;;;15.48;;
81651;SDS011;71061;55.714;37.794;2023-09-19T00:45:04;25.67;;;15.88;;
81651;SDS011;71061;55.714;37.794;2023-09-19T00:47:31;25.75;;;16.40;;
81651;SDS011;71061;55.714;37.794;2023-09-19T00:49:57;23.77;;;15.90;;
81651;SDS011;71061;55.714;37.794;2023-09-19T00:52:24;27.60;;;15.35;;
81651;SDS011;71061;55.714;37.794;2023-09-19T00:54:50;22.67;;;15.50;;
81651;SDS011;71061;55.714;37.794;2023-09-19T00:57:17;20.85;;;14.82;;
81651;SDS011;71061;55.714;37.794;2023-09-19T00:59:44;20.38;;;14.45;;
81651;SDS011;71061;55.714;37.794;2023-09-19T01:02:10;21.17;;;14.55;;
81651;SDS011;71061;55.714;37.794;2023-09-19T01:04:40;20.75;;;15.18;;
81651;SDS011;71061;55.714;37.794;2023-09-19T01:07:06;19.98;;;13.77;;
81651;SDS011;71061;55.714;37.794;2023-09-19T01:09:33;17.27;;;13.05;;
81651;SDS011;71061;55.714;37.794;2023-09-19T01:12:01;18.38;;;13.07;;
81651;SDS011;71061;55.714;37.794;2023-09-19T01:17:14;17.20;;;11.23;;
81651;SDS011;71061;55.714;37.794;2023-09-19T01:19:55;20.05;;;11.50;;
81651;SDS011;71061;55.714;37.794;2023-09-19T01:22:42;16.15;;;10.13;;
81651;SDS011;71061;55.714;37.794;2023-09-19T01:28:39;15.05;;;10.02;;
81651;SDS011;71061;55.714;37.794;2023-09-19T01:31:04;19.02;;;10.05;;
81651;SDS011;71061;55.714;37.794;2023-09-19T01:36:23;17.92;;;10.38;;
81651;SDS011;71061;55.714;37.794;2023-09-19T01:38:50;17.17;;;10.15;;
81651;SDS011;71061;55.714;37.794;2023-09-19T01:41:21;15.00;;;10.27;;
81651;SDS011;71061;55.714;37.794;2023-09-19T01:43:51;14.88;;;9.75;;
81651;SDS011;71061;55.714;37.794;2023-09-19T01:46:21;18.13;;;10.40;;
81651;SDS011;71061;55.714;37.794;2023-09-19T01:48:59;14.70;;;9.95;;
81651;SDS011;71061;55.714;37.794;2023-09-19T01:51:45;13.75;;;9.60;;
81651;SDS011;71061;55.714;37.794;2023-09-19T01:54:18;16.83;;;9.52;;
81651;SDS011;71061;55.714;37.794;2023-09-19T01:56:54;14.27;;;9.80;;
81651;SDS011;71061;55.714;37.794;2023-09-19T01:59:28;15.65;;;9.38;;
81651;SDS011;71061;55.714;37.794;2023-09-19T02:02:00;17.30;;;10.00;;
81651;SDS011;71061;55.714;37.794;2023-09-19T02:04:26;18.65;;;9.73;;
81651;SDS011;71061;55.714;37.794;2023-09-19T02:06:52;14.40;;;9.60;;
81651;SDS011;71061;55.714;37.794;2023-09-19T02:09:18;15.43;;;9.75;;
81651;SDS011;71061;55.714;37.794;2023-09-19T02:11:44;19.38;;;11.45;;
81651;SDS011;71061;55.714;37.794;2023-09-19T02:14:10;15.30;;;9.75;;
81651;SDS011;71061;55.714;37.794;2023-09-19T02:16:37;17.17;;;9.23;;
81651;SDS011;71061;55.714;37.794;2023-09-19T02:19:03;14.98;;;8.27;;
81651;SDS011;71061;55.714;37.794;2023-09-19T02:21:31;14.77;;;9.32;;
81651;SDS011;71061;55.714;37.794;2023-09-19T02:23:58;15.93;;;9.23;;
81651;SDS011;71061;55.714;37.794;2023-09-19T02:26:24;17.23;;;9.25;;
81651;SDS011;71061;55.714;37.794;2023-09-19T02:28:50;16.85;;;9.63;;
81651;SDS011;71061;55.714;37.794;2023-09-19T02:31:16;14.73;;;8.98;;
81651;SDS011;71061;55.714;37.794;2023-09-19T02:33:42;13.75;;;9.32;;
81651;SDS011;71061;55.714;37.794;2023-09-19T02:36:09;17.08;;;10.15;;
81651;SDS011;71061;55.714;37.794;2023-09-19T02:38:35;13.85;;;9.48;;
81651;SDS011;71061;55.714;37.794;2023-09-19T02:41:02;15.75;;;10.40;;
81651;SDS011;71061;55.714;37.794;2023-09-19T02:43:28;17.77;;;10.13;;
81651;SDS011;71061;55.714;37.794;2023-09-19T02:45:54;16.27;;;9.85;;
81651;SDS011;71061;55.714;37.794;2023-09-19T02:48:20;15.40;;;9.77;;
81651;SDS011;71061;55.714;37.794;2023-09-19T02:50:48;14.48;;;9.25;;
81651;SDS011;71061;55.714;37.794;2023-09-19T02:53:15;16.77;;;11.52;;
81651;SDS011;71061;55.714;37.794;2023-09-19T02:55:41;19.98;;;12.30;;
81651;SDS011;71061;55.714;37.794;2023-09-19T02:58:08;15.85;;;11.60;;
81651;SDS011;71061;55.714;37.794;2023-09-19T03:00:36;17.40;;;10.80;;
81651;SDS011;71061;55.714;37.794;2023-09-19T03:03:02;18.55;;;11.55;;
81651;SDS011;71061;55.714;37.794;2023-09-19T03:05:29;15.25;;;10.80;;
81651;SDS011;71061;55.714;37.794;2023-09-19T03:07:56;16.85;;;10.30;;
81651;SDS011;71061;55.714;37.794;2023-09-19T03:10:22;19.92;;;10.75;;
81651;SDS011;71061;55.714;37.794;2023-09-19T03:12:51;19.25;;;10.27;;
81651;SDS011;71061;55.714;37.794;2023-09-19T03:15:18;15.98;;;9.27;;
81651;SDS011;71061;55.714;37.794;2023-09-19T03:17:45;16.35;;;10.30;;
81651;SDS011;71061;55.714;37.794;2023-09-19T03:20:14;16.42;;;10.10;;
81651;SDS011;71061;55.714;37.794;2023-09-19T03:22:44;17.08;;;9.90;;
81651;SDS011;71061;55.714;37.794;2023-09-19T03:25:10;17.23;;;10.70;;
81651;SDS011;71061;55.714;37.794;2023-09-19T03:27:38;16.23;;;9.70;;
81651;SDS011;71061;55.714;37.794;2023-09-19T03:30:06;16.08;;;9.73;;
81651;SDS011;71061;55.714;37.794;2023-09-19T03:32:46;17.65;;;8.90;;
81651;SDS011;71061;55.714;37.794;2023-09-19T03:35:15;13.25;;;8.38;;
81651;SDS011;71061;55.714;37.794;2023-09-19T03:37:42;14.75;;;8.45;;
81651;SDS011;71061;55.714;37.794;2023-09-19T03:40:09;14.60;;;8.40;;
81651;SDS011;71061;55.714;37.794;2023-09-19T03:42:39;13.65;;;8.40;;
81651;SDS011;71061;55.714;37.794;2023-09-19T03:45:08;14.63;;;9.15;;
81651;SDS011;71061;55.714;37.794;2023-09-19T03:47:38;13.00;;;7.95;;
81651;SDS011;71061;55.714;37.794;2023-09-19T03:50:05;15.13;;;8.93;;
81651;SDS011;71061;55.714;37.794;2023-09-19T03:52:34;19.17;;;8.43;;
81651;SDS011;71061;55.714;37.794;2023-09-19T03:55:00;14.57;;;8.20;;
81651;SDS011;71061;55.714;37.794;2023-09-19T03:57:28;13.02;;;7.88;;
81651;SDS011;71061;55.714;37.794;2023-09-19T03:59:54;14.02;;;8.07;;
81651;SDS011;71061;55.714;37.794;2023-09-19T04:02:21;16.33;;;9.45;;
81651;SDS011;71061;55.714;37.794;2023-09-19T04:04:49;13.80;;;8.00;;
81651;SDS011;71061;55.714;37.794;2023-09-19T04:07:15;14.48;;;7.70;;
81651;SDS011;71061;55.714;37.794;2023-09-19T04:09:41;14.75;;;10.50;;
81651;SDS011;71061;55.714;37.794;2023-09-19T04:12:07;14.55;;;8.57;;
81651;SDS011;71061;55.714;37.794;2023-09-19T04:14:34;12.82;;;8.45;;
81651;SDS011;71061;55.714;37.794;2023-09-19T04:17:00;15.05;;;8.27;;
81651;SDS011;71061;55.714;37.794;2023-09-19T04:19:26;13.95;;;8.20;;
81651;SDS011;71061;55.714;37.794;2023-09-19T04:21:52;13.77;;;9.32;;
81651;SDS011;71061;55.714;37.794;2023-09-19T04:24:17;17.05;;;9.75;;
81651;SDS011;71061;55.714;37.794;2023-09-19T04:26:45;16.45;;;8.70;;
81651;SDS011;71061;55.714;37.794;2023-09-19T04:29:11;16.83;;;11.88;;
81651;SDS011;71061;55.714;37.794;2023-09-19T04:31:39;16.17;;;9.73;;
81651;SDS011;71061;55.714;37.794;2023-09-19T04:34:06;16.80;;;9.95;;
81651;SDS011;71061;55.714;37.794;2023-09-19T04:36:33;17.38;;;9.75;;
81651;SDS011;71061;55.714;37.794;2023-09-19T04:38:59;16.17;;;9.10;;
81651;SDS011;71061;55.714;37.794;2023-09-19T04:41:24;19.42;;;9.63;;
81651;SDS011;71061;55.714;37.794;2023-09-19T04:43:50;17.08;;;10.05;;
81651;SDS011;71061;55.714;37.794;2023-09-19T04:46:16;18.13;;;9.90;;
81651;SDS011;71061;55.714;37.794;2023-09-19T04:48:43;39.40;;;23.27;;
81651;SDS011;71061;55.714;37.794;2023-09-19T04:51:09;20.88;;;12.73;;
81651;SDS011;71061;55.714;37.794;2023-09-19T04:53:36;26.90;;;15.32;;
81651;SDS011;71061;55.714;37.794;2023-09-19T04:56:02;24.00;;;12.35;;
81651;SDS011;71061;55.714;37.794;2023-09-19T04:58:29;16.90;;;12.45;;
81651;SDS011;71061;55.714;37.794;2023-09-19T05:00:55;19.30;;;11.77;;
81651;SDS011;71061;55.714;37.794;2023-09-19T05:03:21;18.23;;;10.48;;
81651;SDS011;71061;55.714;37.794;2023-09-19T05:05:47;16.02;;;10.48;;
81651;SDS011;71061;55.714;37.794;2023-09-19T05:08:14;16.33;;;9.63;;
81651;SDS011;71061;55.714;37.794;2023-09-19T05:10:40;20.10;;;9.48;;
81651;SDS011;71061;55.714;37.794;2023-09-19T05:13:06;19.90;;;9.25;;
81651;SDS011;71061;55.714;37.794;2023-09-19T05:15:33;18.02;;;9.55;;
81651;SDS011;71061;55.714;37.794;2023-09-19T05:18:00;17.10;;;9.98;;
81651;SDS011;71061;55.714;37.794;2023-09-19T05:20:26;15.13;;;10.70;;
81651;SDS011;71061;55.714;37.794;2023-09-19T05:22:58;16.58;;;9.75;;
81651;SDS011;71061;55.714;37.794;2023-09-19T05:25:36;15.80;;;10.70;;
81651;SDS011;71061;55.714;37.794;2023-09-19T05:28:02;17.65;;;10.20;;
81651;SDS011;71061;55.714;37.794;2023-09-19T05:30:29;18.60;;;10.90;;
81651;SDS011;71061;55.714;37.794;2023-09-19T05:32:55;15.52;;;11.10;;
81651;SDS011;71061;55.714;37.794;2023-09-19T05:35:22;17.75;;;10.82;;
81651;SDS011;71061;55.714;37.794;2023-09-19T05:37:50;16.30;;;10.88;;
81651;SDS011;71061;55.714;37.794;2023-09-19T05:40:17;17.88;;;10.57;;
81651;SDS011;71061;55.714;37.794;2023-09-19T05:42:45;14.57;;;10.13;;
81651;SDS011;71061;55.714;37.794;2023-09-19T05:45:11;14.90;;;10.43;;
81651;SDS011;71061;55.714;37.794;2023-09-19T05:47:39;17.17;;;10.88;;
81651;SDS011;71061;55.714;37.794;2023-09-19T05:50:08;18.80;;;11.85;;
81651;SDS011;71061;55.714;37.794;2023-09-19T05:52:35;15.27;;;9.98;;
81651;SDS011;71061;55.714;37.794;2023-09-19T05:55:04;15.73;;;10.68;;
81651;SDS011;71061;55.714;37.794;2023-09-19T05:57:31;14.60;;;10.45;;
81651;SDS011;71061;55.714;37.794;2023-09-19T05:59:57;18.35;;;10.88;;
81651;SDS011;71061;55.714;37.794;2023-09-19T06:02:23;12.40;;;7.97;;
81651;SDS011;71061;55.714;37.794;2023-09-19T06:04:52;17.08;;;10.60;;
81651;SDS011;71061;55.714;37.794;2023-09-19T06:07:18;17.75;;;11.48;;
81651;SDS011;71061;55.714;37.794;2023-09-19T06:09:44;15.98;;;11.35;;
81651;SDS011;71061;55.714;37.794;2023-09-19T06:12:09;17.15;;;11.50;;
81651;SDS011;71061;55.714;37.794;2023-09-19T06:14:38;15.95;;;11.00;;
81651;SDS011;71061;55.714;37.794;2023-09-19T06:17:05;16.77;;;11.30;;
81651;SDS011;71061;55.714;37.794;2023-09-19T06:19:31;17.27;;;11.90;;
81651;SDS011;71061;55.714;37.794;2023-09-19T06:21:58;17.83;;;10.95;;
81651;SDS011;71061;55.714;37.794;2023-09-19T06:24:24;17.85;;;10.63;;
81651;SDS011;71061;55.714;37.794;2023-09-19T06:26:51;17.73;;;11.60;;
81651;SDS011;71061;55.714;37.794;2023-09-19T06:29:18;15.65;;;11.30;;
81651;SDS011;71061;55.714;37.794;2023-09-19T06:31:46;15.68;;;10.55;;
81651;SDS011;71061;55.714;37.794;2023-09-19T06:34:12;15.75;;;11.45;;
81651;SDS011;71061;55.714;37.794;2023-09-19T06:36:40;16.23;;;11.23;;
81651;SDS011;71061;55.714;37.794;2023-09-19T06:39:07;20.27;;;11.85;;
81651;SDS011;71061;55.714;37.794;2023-09-19T06:41:36;18.42;;;11.50;;
81651;SDS011;71061;55.714;37.794;2023-09-19T06:44:09;17.60;;;11.57;;
81651;SDS011;71061;55.714;37.794;2023-09-19T06:46:35;14.85;;;11.20;;
81651;SDS011;71061;55.714;37.794;2023-09-19T06:49:04;17.23;;;9.65;;
81651;SDS011;71061;55.714;37.794;2023-09-19T06:51:32;15.70;;;10.95;;
81651;SDS011;71061;55.714;37.794;2023-09-19T06:54:01;16.60;;;10.55;;
81651;SDS011;71061;55.714;37.794;2023-09-19T06:56:27;16.70;;;12.18;;
81651;SDS011;71061;55.714;37.794;2023-09-19T06:58:52;17.55;;;10.88;;
81651;SDS011;71061;55.714;37.794;2023-09-19T07:01:18;18.85;;;11.70;;
81651;SDS011;71061;55.714;37.794;2023-09-19T07:03:44;17.67;;;11.40;;
81651;SDS011;71061;55.714;37.794;2023-09-19T07:06:11;18.70;;;11.93;;
81651;SDS011;71061;55.714;37.794;2023-09-19T07:08:37;19.13;;;11.57;;
81651;SDS011;71061;55.714;37.794;2023-09-19T07:11:03;16.85;;;11.45;;
81651;SDS011;71061;55.714;37.794;2023-09-19T07:13:31;19.13;;;12.23;;
81651;SDS011;71061;55.714;37.794;2023-09-19T07:15:58;21.23;;;12.48;;
81651;SDS011;71061;55.714;37.794;2023-09-19T07:18:24;26.10;;;13.63;;
81651;SDS011;71061;55.714;37.794;2023-09-19T07:20:50;18.10;;;12.73;;
81651;SDS011;71061;55.714;37.794;2023-09-19T07:23:17;18.10;;;10.27;;
81651;SDS011;71061;55.714;37.794;2023-09-19T07:25:44;19.33;;;12.30;;
81651;SDS011;71061;55.714;37.794;2023-09-19T07:28:12;22.00;;;12.82;;
81651;SDS011;71061;55.714;37.794;2023-09-19T07:30:38;16.25;;;11.25;;
81651;SDS011;71061;55.714;37.794;2023-09-19T07:33:04;17.48;;;11.40;;
81651;SDS011;71061;55.714;37.794;2023-09-19T07:35:31;18.88;;;12.88;;
81651;SDS011;71061;55.714;37.794;2023-09-19T07:37:57;18.65;;;12.05;;
81651;SDS011;71061;55.714;37.794;2023-09-19T07:40:24;18.10;;;12.27;;
81651;SDS011;71061;55.714;37.794;2023-09-19T07:42:52;19.90;;;12.00;;
81651;SDS011;71061;55.714;37.794;2023-09-19T07:45:17;17.75;;;11.82;;
81651;SDS011;71061;55.714;37.794;2023-09-19T07:47:44;19.63;;;12.35;;
81651;SDS011;71061;55.714;37.794;2023-09-19T07:50:10;22.52;;;13.02;;
81651;SDS011;71061;55.714;37.794;2023-09-19T07:52:36;21.67;;;13.23;;
81651;SDS011;71061;55.714;37.794;2023-09-19T07:55:05;18.45;;;11.18;;
81651;SDS011;71061;55.714;37.794;2023-09-19T07:57:35;23.38;;;12.73;;
81651;SDS011;71061;55.714;37.794;2023-09-19T08:00:01;21.70;;;13.07;;
81651;SDS011;71061;55.714;37.794;2023-09-19T08:02:48;21.33;;;12.43;;
81651;SDS011;71061;55.714;37.794;2023-09-19T08:05:14;19.00;;;10.90;;
81651;SDS011;71061;55.714;37.794;2023-09-19T08:07:42;21.80;;;12.65;;
81651;SDS011;71061;55.714;37.794;2023-09-19T08:10:09;19.30;;;10.95;;
81651;SDS011;71061;55.714;37.794;2023-09-19T08:12:40;21.73;;;11.70;;
81651;SDS011;71061;55.714;37.794;2023-09-19T08:15:15;22.38;;;10.70;;
81651;SDS011;71061;55.714;37.794;2023-09-19T08:17:44;19.52;;;11.77;;
81651;SDS011;71061;55.714;37.794;2023-09-19T08:20:10;17.90;;;11.40;;
81651;SDS011;71061;55.714;37.794;2023-09-19T08:22:43;20.63;;;11.73;;
81651;SDS011;71061;55.714;37.794;2023-09-19T08:27:37;22.67;;;14.00;;
81651;SDS011;71061;55.714;37.794;2023-09-19T08:30:02;22.55;;;11.23;;
81651;SDS011;71061;55.714;37.794;2023-09-19T08:32:29;16.50;;;10.60;;
81651;SDS011;71061;55.714;37.794;2023-09-19T08:34:55;23.27;;;12.65;;
81651;SDS011;71061;55.714;37.794;2023-09-19T08:37:21;21.70;;;13.23;;
81651;SDS011;71061;55.714;37.794;2023-09-19T08:39:46;19.00;;;11.52;;
81651;SDS011;71061;55.714;37.794;2023-09-19T08:42:12;21.42;;;11.82;;
81651;SDS011;71061;55.714;37.794;2023-09-19T08:44:38;19.92;;;11.10;;
81651;SDS011;71061;55.714;37.794;2023-09-19T08:47:09;16.73;;;11.95;;
81651;SDS011;71061;55.714;37.794;2023-09-19T08:52:20;20.02;;;12.05;;
81651;SDS011;71061;55.714;37.794;2023-09-19T08:54:48;19.38;;;11.40;;
81651;SDS011;71061;55.714;37.794;2023-09-19T08:57:19;22.45;;;12.00;;
81651;SDS011;71061;55.714;37.794;2023-09-19T08:59:48;21.95;;;11.60;;
81651;SDS011;71061;55.714;37.794;2023-09-19T09:02:15;21.80;;;12.48;;
81651;SDS011;71061;55.714;37.794;2023-09-19T09:04:42;18.50;;;11.52;;
81651;SDS011;71061;55.714;37.794;2023-09-19T09:07:10;22.30;;;12.45;;
81651;SDS011;71061;55.714;37.794;2023-09-19T09:09:38;20.13;;;13.00;;
81651;SDS011;71061;55.714;37.794;2023-09-19T09:12:09;18.67;;;11.80;;
81651;SDS011;71061;55.714;37.794;2023-09-19T09:14:38;24.05;;;12.30;;
81651;SDS011;71061;55.714;37.794;2023-09-19T09:17:03;21.05;;;11.48;;
81651;SDS011;71061;55.714;37.794;2023-09-19T09:19:30;23.13;;;12.60;;
81651;SDS011;71061;55.714;37.794;2023-09-19T09:22:05;19.60;;;11.90;;
81651;SDS011;71061;55.714;37.794;2023-09-19T09:24:33;17.30;;;11.00;;
81651;SDS011;71061;55.714;37.794;2023-09-19T09:26:59;18.80;;;11.38;;
81651;SDS011;71061;55.714;37.794;2023-09-19T09:32:16;19.63;;;10.80;;
81651;SDS011;71061;55.714;37.794;2023-09-19T09:34:47;21.42;;;11.30;;
81651;SDS011;71061;55.714;37.794;2023-09-19T09:37:15;18.67;;;10.35;;
81651;SDS011;71061;55.714;37.794;2023-09-19T09:39:48;20.98;;;14.70;;
81651;SDS011;71061;55.714;37.794;2023-09-19T09:42:33;16.75;;;10.40;;
81651;SDS011;71061;55.714;37.794;2023-09-19T09:48:03;18.85;;;10.40;;
81651;SDS011;71061;55.714;37.794;2023-09-19T09:50:33;16.05;;;10.95;;
81651;SDS011;71061;55.714;37.794;2023-09-19T09:53:20;15.18;;;9.27;;
81651;SDS011;71061;55.714;37.794;2023-09-19T09:56:04;17.20;;;10.40;;
81651;SDS011;71061;55.714;37.794;2023-09-19T10:01:24;15.70;;;9.35;;
81651;SDS011;71061;55.714;37.794;2023-09-19T10:04:00;19.70;;;9.88;;
81651;SDS011;71061;55.714;37.794;2023-09-19T10:06:26;17.98;;;10.45;;
81651;SDS011;71061;55.714;37.794;2023-09-19T10:11:40;19.38;;;9.95;;
81651;SDS011;71061;55.714;37.794;2023-09-19T10:14:09;15.82;;;10.13;;
81651;SDS011;71061;55.714;37.794;2023-09-19T10:16:40;19.25;;;10.38;;
81651;SDS011;71061;55.714;37.794;2023-09-19T10:19:09;19.13;;;9.80;;
81651;SDS011;71061;55.714;37.794;2023-09-19T10:21:35;17.95;;;10.10;;
81651;SDS011;71061;55.714;37.794;2023-09-19T10:24:03;19.25;;;11.63;;
81651;SDS011;71061;55.714;37.794;2023-09-19T10:26:30;20.02;;;11.93;;
81651;SDS011;71061;55.714;37.794;2023-09-19T10:28:57;17.90;;;10.60;;
81651;SDS011;71061;55.714;37.794;2023-09-19T10:31:26;16.23;;;10.43;;
81651;SDS011;71061;55.714;37.794;2023-09-19T10:33:54;19.02;;;11.07;;
81651;SDS011;71061;55.714;37.794;2023-09-19T10:36:21;20.25;;;10.25;;
81651;SDS011;71061;55.714;37.794;2023-09-19T10:38:51;13.25;;;9.40;;
81651;SDS011;71061;55.714;37.794;2023-09-19T10:43:46;15.80;;;10.43;;
81651;SDS011;71061;55.714;37.794;2023-09-19T10:46:13;16.77;;;9.68;;
81651;SDS011;71061;55.714;37.794;2023-09-19T10:48:40;18.63;;;11.50;;
81651;SDS011;71061;55.714;37.794;2023-09-19T10:51:11;19.88;;;11.93;;
81651;SDS011;71061;55.714;37.794;2023-09-19T10:53:55;16.48;;;10.77;;
81651;SDS011;71061;55.714;37.794;2023-09-19T10:56:33;18.58;;;11.48;;
81651;SDS011;71061;55.714;37.794;2023-09-19T10:59:10;19.85;;;10.93;;
81651;SDS011;71061;55.714;37.794;2023-09-19T11:01:55;18.80;;;11.10;;
81651;SDS011;71061;55.714;37.794;2023-09-19T11:07:15;19.42;;;11.25;;
81651;SDS011;71061;55.714;37.794;2023-09-19T11:09:57;15.10;;;10.15;;
81651;SDS011;71061;55.714;37.794;2023-09-19T11:15:08;15.85;;;9.93;;
81651;SDS011;71061;55.714;37.794;2023-09-19T11:17:36;15.93;;;10.10;;
81651;SDS011;71061;55.714;37.794;2023-09-19T11:30:44;17.48;;;11.65;;
81651;SDS011;71061;55.714;37.794;2023-09-19T11:36:10;17.30;;;10.63;;
81651;SDS011;71061;55.714;37.794;2023-09-19T11:46:55;20.50;;;11.25;;
81651;SDS011;71061;55.714;37.794;2023-09-19T11:49:31;16.80;;;11.50;;
81651;SDS011;71061;55.714;37.794;2023-09-19T11:51:59;20.13;;;11.68;;
81651;SDS011;71061;55.714;37.794;2023-09-19T11:54:27;20.10;;;12.00;;
81651;SDS011;71061;55.714;37.794;2023-09-19T11:59:23;20.13;;;13.02;;
81651;SDS011;71061;55.714;37.794;2023-09-19T12:01:55;17.55;;;12.43;;
81651;SDS011;71061;55.714;37.794;2023-09-19T12:04:40;17.17;;;12.00;;
81651;SDS011;71061;55.714;37.794;2023-09-19T12:07:09;19.17;;;12.00;;
81651;SDS011;71061;55.714;37.794;2023-09-19T12:09:48;22.50;;;11.00;;
81651;SDS011;71061;55.714;37.794;2023-09-19T12:12:19;15.52;;;10.95;;
81651;SDS011;71061;55.714;37.794;2023-09-19T12:14:56;20.92;;;11.27;;
81651;SDS011;71061;55.714;37.794;2023-09-19T12:17:34;20.70;;;11.32;;
81651;SDS011;71061;55.714;37.794;2023-09-19T12:20:01;18.35;;;11.30;;
81651;SDS011;71061;55.714;37.794;2023-09-19T12:22:39;22.05;;;10.98;;
81651;SDS011;71061;55.714;37.794;2023-09-19T12:25:09;25.65;;;11.63;;
81651;SDS011;71061;55.714;37.794;2023-09-19T12:27:44;23.58;;;11.93;;
81651;SDS011;71061;55.714;37.794;2023-09-19T12:30:12;19.23;;;10.57;;
81651;SDS011;71061;55.714;37.794;2023-09-19T12:32:40;18.42;;;10.57;;
81651;SDS011;71061;55.714;37.794;2023-09-19T12:35:07;20.85;;;10.82;;
81651;SDS011;71061;55.714;37.794;2023-09-19T12:37:36;17.92;;;11.15;;
81651;SDS011;71061;55.714;37.794;2023-09-19T12:40:04;19.65;;;11.48;;
81651;SDS011;71061;55.714;37.794;2023-09-19T12:42:42;21.10;;;11.38;;
81651;SDS011;71061;55.714;37.794;2023-09-19T12:45:10;21.13;;;12.25;;
81651;SDS011;71061;55.714;37.794;2023-09-19T12:47:39;22.00;;;10.30;;
81651;SDS011;71061;55.714;37.794;2023-09-19T12:52:46;18.75;;;10.40;;
81651;SDS011;71061;55.714;37.794;2023-09-19T12:55:33;18.88;;;11.15;;
81651;SDS011;71061;55.714;37.794;2023-09-19T13:00:40;16.75;;;10.32;;
81651;SDS011;71061;55.714;37.794;2023-09-19T13:06:01;19.55;;;10.48;;
81651;SDS011;71061;55.714;37.794;2023-09-19T13:16:24;19.63;;;13.07;;
81651;SDS011;71061;55.714;37.794;2023-09-19T13:18:52;23.95;;;13.52;;
81651;SDS011;71061;55.714;37.794;2023-09-19T13:21:28;20.85;;;12.65;;
81651;SDS011;71061;55.714;37.794;2023-09-19T13:29:19;21.67;;;11.07;;
81651;SDS011;71061;55.714;37.794;2023-09-19T13:31:45;21.13;;;11.32;;
81651;SDS011;71061;55.714;37.794;2023-09-19T13:34:12;25.42;;;11.88;;
81651;SDS011;71061;55.714;37.794;2023-09-19T13:36:41;33.20;;;22.00;;
81651;SDS011;71061;55.714;37.794;2023-09-19T13:39:07;33.90;;;18.98;;
81651;SDS011;71061;55.714;37.794;2023-09-19T13:41:35;18.13;;;12.10;;
81651;SDS011;71061;55.714;37.794;2023-09-19T13:44:02;24.25;;;12.95;;
81651;SDS011;71061;55.714;37.794;2023-09-19T13:46:29;28.83;;;11.73;;
81651;SDS011;71061;55.714;37.794;2023-09-19T13:49:00;19.13;;;10.95;;
81651;SDS011;71061;55.714;37.794;2023-09-19T13:51:29;19.85;;;12.18;;
81651;SDS011;71061;55.714;37.794;2023-09-19T13:53:56;21.75;;;12.07;;
81651;SDS011;71061;55.714;37.794;2023-09-19T13:56:22;18.95;;;12.77;;
81651;SDS011;71061;55.714;37.794;2023-09-19T13:58:47;16.90;;;11.10;;
81651;SDS011;71061;55.714;37.794;2023-09-19T14:01:13;18.50;;;9.98;;
81651;SDS011;71061;55.714;37.794;2023-09-19T14:03:39;29.98;;;18.45;;
81651;SDS011;71061;55.714;37.794;2023-09-19T14:06:05;20.23;;;9.93;;
81651;SDS011;71061;55.714;37.794;2023-09-19T14:08:31;17.27;;;11.05;;
81651;SDS011;71061;55.714;37.794;2023-09-19T14:11:05;20.15;;;10.00;;
81651;SDS011;71061;55.714;37.794;2023-09-19T14:13:31;15.70;;;9.68;;
81651;SDS011;71061;55.714;37.794;2023-09-19T14:15:57;17.58;;;9.48;;
81651;SDS011;71061;55.714;37.794;2023-09-19T14:18:23;15.32;;;8.68;;
81651;SDS011;71061;55.714;37.794;2023-09-19T14:20:49;15.35;;;10.52;;
81651;SDS011;71061;55.714;37.794;2023-09-19T14:25:44;21.73;;;12.40;;
81651;SDS011;71061;55.714;37.794;2023-09-19T14:28:09;16.25;;;10.65;;
81651;SDS011;71061;55.714;37.794;2023-09-19T14:30:35;15.77;;;9.73;;
81651;SDS011;71061;55.714;37.794;2023-09-19T14:33:02;17.33;;;9.93;;
81651;SDS011;71061;55.714;37.794;2023-09-19T14:35:29;19.75;;;10.60;;
81651;SDS011;71061;55.714;37.794;2023-09-19T14:37:55;16.95;;;10.15;;
81651;SDS011;71061;55.714;37.794;2023-09-19T14:40:21;17.20;;;9.65;;
81651;SDS011;71061;55.714;37.794;2023-09-19T14:42:47;14.73;;;9.82;;
81651;SDS011;71061;55.714;37.794;2023-09-19T14:45:13;16.27;;;12.00;;
81651;SDS011;71061;55.714;37.794;2023-09-19T14:47:45;16.60;;;10.07;;
81651;SDS011;71061;55.714;37.794;2023-09-19T14:50:12;15.80;;;10.82;;
81651;SDS011;71061;55.714;37.794;2023-09-19T14:52:38;19.88;;;10.90;;
81651;SDS011;71061;55.714;37.794;2023-09-19T14:55:06;19.23;;;10.30;;
81651;SDS011;71061;55.714;37.794;2023-09-19T14:57:34;17.13;;;10.50;;
81651;SDS011;71061;55.714;37.794;2023-09-19T15:00:00;16.73;;;10.48;;
81651;SDS011;71061;55.714;37.794;2023-09-19T15:02:29;18.25;;;11.90;;
81651;SDS011;71061;55.714;37.794;2023-09-19T15:04:57;21.05;;;11.23;;
81651;SDS011;71061;55.714;37.794;2023-09-19T15:07:22;19.00;;;12.05;;
81651;SDS011;71061;55.714;37.794;2023-09-19T15:09:49;20.35;;;15.60;;
81651;SDS011;71061;55.714;37.794;2023-09-19T15:12:14;21.17;;;11.90;;
81651;SDS011;71061;55.714;37.794;2023-09-19T15:14:42;20.27;;;12.27;;
81651;SDS011;71061;55.714;37.794;2023-09-19T15:17:08;17.50;;;10.27;;
81651;SDS011;71061;55.714;37.794;2023-09-19T15:19:34;19.23;;;11.68;;
81651;SDS011;71061;55.714;37.794;2023-09-19T15:22:00;18.55;;;12.55;;
81651;SDS011;71061;55.714;37.794;2023-09-19T15:24:26;23.95;;;12.55;;
81651;SDS011;71061;55.714;37.794;2023-09-19T15:26:52;26.70;;;14.68;;
81651;SDS011;71061;55.714;37.794;2023-09-19T15:29:20;24.67;;;13.75;;
81651;SDS011;71061;55.714;37.794;2023-09-19T15:31:46;26.52;;;15.55;;
81651;SDS011;71061;55.714;37.794;2023-09-19T15:34:12;24.30;;;14.00;;
81651;SDS011;71061;55.714;37.794;2023-09-19T15:36:41;30.70;;;15.60;;
81651;SDS011;71061;55.714;37.794;2023-09-19T15:39:07;36.47;;;16.73;;